Newchang — 9V5441 — position and weather

sailwx.info

Track history (hours):
 
Tides and Currents Weather Stations Pressure Air Temp Water Temp Dewpoint Dewpoint Depression Visibility Wind Speed Wind Dir Waves Ship Positions

Newchang

Last reported at 2017-Nov-16 01:43 UTC. Time now 2017-Nov-22 10:59 UTC.
Position S 29°35' E 031°58'.

Length 180 m; draft 10.8 m.

Type: Cargo ship. MMSI: 563019600.

Date/timePositionNaut miles runAvg speedWind from/ knotsBaromVisibWave heightAir tempDewpointWater temp
2017-Nov-16 01:43S 29°35' E 031°58'2 9.5
2017-Nov-16 01:30S 29°35' E 031°56'5 9.1
2017-Nov-16 01:00S 29°37' E 031°51'5 9.2
2017-Nov-16 00:30S 29°38' E 031°45'510.1
2017-Nov-16 00:00S 29°39' E 031°40'612.0
2017-Nov-15 23:30S 29°42' E 031°34'612.1
2017-Nov-15 23:00S 29°45' E 031°28'611.7
2017-Nov-15 22:30S 29°46' E 031°21'612.2
2017-Nov-15 22:00S 29°47' E 031°14'612.6
2017-Nov-15 21:30S 29°50' E 031°07'5 9.6
2017-Nov-15 21:00S 29°53' E 031°03'1 1.4
2017-Nov-15 20:30S 29°52' E 031°02'0 0.0
2017-Nov-15 19:58S 29°52' E 031°02'0 0.0
2017-Nov-15 19:28S 29°52' E 031°02'0 0.0
2017-Nov-15 18:58S 29°52' E 031°02'0 0.0
2017-Nov-15 18:28S 29°52' E 031°02'0 0.0
2017-Nov-15 17:58S 29°52' E 031°02'0 0.0
2017-Nov-15 17:28S 29°52' E 031°02'0 0.0
2017-Nov-15 16:58S 29°52' E 031°02'0 0.0
2017-Nov-15 16:28S 29°52' E 031°02'0 0.0
2017-Nov-15 15:58S 29°52' E 031°02'0 0.0
2017-Nov-15 15:25S 29°52' E 031°02'0 0.0
2017-Nov-15 14:58S 29°52' E 031°02'0 0.0
2017-Nov-15 14:28S 29°52' E 031°02'0 0.0
2017-Nov-15 13:58S 29°52' E 031°02'0 0.0
2017-Nov-15 13:28S 29°52' E 031°02'0 0.0
2017-Nov-15 12:58S 29°52' E 031°02'0 0.0
2017-Nov-15 12:28S 29°52' E 031°02'0 0.0
2017-Nov-15 11:58S 29°52' E 031°02'0 0.0
2017-Nov-15 11:28S 29°52' E 031°02'0 0.0
2017-Nov-15 10:59S 29°52' E 031°02'0 0.6
2017-Nov-15 10:31S 29°53' E 031°02'3 6.0
2017-Nov-15 10:01S 29°50' E 031°05'2 4.2
2017-Nov-15 09:31S 29°49' E 031°06'0 0.9
2017-Nov-15 09:01S 29°48' E 031°06'0 0.6
2017-Nov-15 08:31S 29°49' E 031°07'4 8.2
2017-Nov-15 08:01S 29°46' E 031°10'3 5.8
2017-Nov-15 07:31S 29°43' E 031°12'0 0.3
2017-Nov-15 07:00S 29°43' E 031°12'0 0.0
2017-Nov-15 06:30S 29°43' E 031°12'0 0.0
2017-Nov-15 06:00S 29°43' E 031°12'0 0.0
2017-Nov-15 05:30S 29°43' E 031°12'0 0.1
2017-Nov-15 05:00S 29°44' E 031°12'1 1.7
2017-Nov-15 04:31S 29°43' E 031°13'2 4.6
2017-Nov-15 04:01S 29°44' E 031°15'3 5.2
2017-Nov-15 03:31S 29°47' E 031°15'510.3
2017-Nov-15 03:00S 29°52' E 031°16'812.7
2017-Nov-15 02:23S 29°59' E 031°12'613.8
2017-Nov-15 01:55S 30°05' E 031°09'613.7
2017-Nov-15 01:30S 30°11' E 031°07'712.8
2017-Nov-15 01:00S 30°17' E 031°04'611.6
2017-Nov-15 00:30S 30°22' E 031°01'  
Track history (hours):
 
Tides and Currents Weather Stations Pressure Air Temp Water Temp Dewpoint Dewpoint Depression Visibility Wind Speed Wind Dir Waves Ship Positions

Newchang

Last reported at 2017-Nov-16 01:43 UTC. Time now 2017-Nov-22 10:59 UTC.
Position S 29°35' E 031°58'.

Length 180 m; draft 10.8 m.

Type: Cargo ship. MMSI: 563019600.

Date/timePositionNaut miles runAvg speedWind from/ knotsBaromVisibWave heightAir tempDewpointWater temp
2017-Nov-16 01:43S 29°35' E 031°58'2 9.5
2017-Nov-16 01:30S 29°35' E 031°56'5 9.1
2017-Nov-16 01:00S 29°37' E 031°51'5 9.2
2017-Nov-16 00:30S 29°38' E 031°45'510.1
2017-Nov-16 00:00S 29°39' E 031°40'612.0
2017-Nov-15 23:30S 29°42' E 031°34'612.1
2017-Nov-15 23:00S 29°45' E 031°28'611.7
2017-Nov-15 22:30S 29°46' E 031°21'612.2
2017-Nov-15 22:00S 29°47' E 031°14'612.6
2017-Nov-15 21:30S 29°50' E 031°07'5 9.6
2017-Nov-15 21:00S 29°53' E 031°03'1 1.4
2017-Nov-15 20:30S 29°52' E 031°02'0 0.0
2017-Nov-15 19:58S 29°52' E 031°02'0 0.0
2017-Nov-15 19:28S 29°52' E 031°02'0 0.0
2017-Nov-15 18:58S 29°52' E 031°02'0 0.0
2017-Nov-15 18:28S 29°52' E 031°02'0 0.0
2017-Nov-15 17:58S 29°52' E 031°02'0 0.0
2017-Nov-15 17:28S 29°52' E 031°02'0 0.0
2017-Nov-15 16:58S 29°52' E 031°02'0 0.0
2017-Nov-15 16:28S 29°52' E 031°02'0 0.0
2017-Nov-15 15:58S 29°52' E 031°02'0 0.0
2017-Nov-15 15:25S 29°52' E 031°02'0 0.0
2017-Nov-15 14:58S 29°52' E 031°02'0 0.0
2017-Nov-15 14:28S 29°52' E 031°02'0 0.0
2017-Nov-15 13:58S 29°52' E 031°02'0 0.0
2017-Nov-15 13:28S 29°52' E 031°02'0 0.0
2017-Nov-15 12:58S 29°52' E 031°02'0 0.0
2017-Nov-15 12:28S 29°52' E 031°02'0 0.0
2017-Nov-15 11:58S 29°52' E 031°02'0 0.0
2017-Nov-15 11:28S 29°52' E 031°02'0 0.0
2017-Nov-15 10:59S 29°52' E 031°02'0 0.6
2017-Nov-15 10:31S 29°53' E 031°02'3 6.0
2017-Nov-15 10:01S 29°50' E 031°05'2 4.2
2017-Nov-15 09:31S 29°49' E 031°06'0 0.9
2017-Nov-15 09:01S 29°48' E 031°06'0 0.6
2017-Nov-15 08:31S 29°49' E 031°07'4 8.2
2017-Nov-15 08:01S 29°46' E 031°10'3 5.8
2017-Nov-15 07:31S 29°43' E 031°12'0 0.3
2017-Nov-15 07:00S 29°43' E 031°12'0 0.0
2017-Nov-15 06:30S 29°43' E 031°12'0 0.0
2017-Nov-15 06:00S 29°43' E 031°12'0 0.0
2017-Nov-15 05:30S 29°43' E 031°12'0 0.1
2017-Nov-15 05:00S 29°44' E 031°12'1 1.7
2017-Nov-15 04:31S 29°43' E 031°13'2 4.6
2017-Nov-15 04:01S 29°44' E 031°15'3 5.2
2017-Nov-15 03:31S 29°47' E 031°15'510.3
2017-Nov-15 03:00S 29°52' E 031°16'812.7
2017-Nov-15 02:23S 29°59' E 031°12'613.8
2017-Nov-15 01:55S 30°05' E 031°09'613.7
2017-Nov-15 01:30S 30°11' E 031°07'712.8
2017-Nov-15 01:00S 30°17' E 031°04'611.6
2017-Nov-15 00:30S 30°22' E 031°01'  

Dump ship's entire track history